United Ambassador — SVAJ7 — position and weather

sailwx.info

Track history (hours):
 
Tides and Currents Weather Stations Pressure Air Temp Water Temp Dewpoint Dewpoint Depression Visibility Wind Speed Wind Dir Waves Ship Positions

United Ambassador

Last reported at 2018-Jun-21 22:23 UTC. Time now 2018-Jun-22 15:04 UTC.
Position N 40°52' E 028°52'.

Length 228 m; draft 8.2 m.

Type: Tanker. MMSI: 240824000.

Date/timePositionNaut miles runAvg speedWind from/ knotsBaromVisibWave heightAir tempDewpointWater temp
2018-Jun-21 22:23N 40°52' E 028°52'514.2
2018-Jun-21 22:00N 40°51' E 028°45'  
2018-Jun-18 10:42N 36°26' E 015°06'314.8
2018-Jun-18 10:30N 36°27' E 015°02'815.0
2018-Jun-18 09:59N 36°27' E 014°53'714.6
2018-Jun-18 09:30N 36°28' E 014°44'714.4
2018-Jun-18 09:00N 36°28' E 014°35'714.4
2018-Jun-18 08:30N 36°29' E 014°26'714.4
2018-Jun-18 08:00N 36°30' E 014°17'714.4
2018-Jun-18 07:30N 36°31' E 014°09'1614.4
2018-Jun-18 06:26N 36°33' E 013°50'49314.2
2018-Jun-16 19:33N 38°05' E 003°40'114.5
2018-Jun-16 19:30N 38°05' E 003°39'814.7
2018-Jun-16 18:59N 38°06' E 003°29'3514.5
2018-Jun-16 16:33N 38°09' E 002°45'214.3
2018-Jun-16 16:23N 38°09' E 002°41'513.8
2018-Jun-16 15:59N 38°09' E 002°35'2 0.2
2018-Jun-16 02:53N 38°07' E 002°36'0 0.4
2018-Jun-16 02:29N 38°07' E 002°36'0 0.4
2018-Jun-16 01:59N 38°07' E 002°36'3 0.5
2018-Jun-15 19:08N 38°05' E 002°39'1 0.3
2018-Jun-15 13:29N 38°03' E 002°40'1 0.4
2018-Jun-15 11:56N 38°03' E 002°39'0 0.4
2018-Jun-15 11:11N 38°02' E 002°39'0 0.4
2018-Jun-15 10:56N 38°02' E 002°39'0 0.4
2018-Jun-15 10:14N 38°02' E 002°39'0 0.5
2018-Jun-15 09:59N 38°02' E 002°39'  
2018-Jun-12 22:25N 37°34' E 002°07'10 1.8
2018-Jun-12 16:46N 37°38' E 001°55'  
Track history (hours):
 
Tides and Currents Weather Stations Pressure Air Temp Water Temp Dewpoint Dewpoint Depression Visibility Wind Speed Wind Dir Waves Ship Positions

United Ambassador

Last reported at 2018-Jun-21 22:23 UTC. Time now 2018-Jun-22 15:04 UTC.
Position N 40°52' E 028°52'.

Length 228 m; draft 8.2 m.

Type: Tanker. MMSI: 240824000.

Date/timePositionNaut miles runAvg speedWind from/ knotsBaromVisibWave heightAir tempDewpointWater temp
2018-Jun-21 22:23N 40°52' E 028°52'514.2
2018-Jun-21 22:00N 40°51' E 028°45'  
2018-Jun-18 10:42N 36°26' E 015°06'314.8
2018-Jun-18 10:30N 36°27' E 015°02'815.0
2018-Jun-18 09:59N 36°27' E 014°53'714.6
2018-Jun-18 09:30N 36°28' E 014°44'714.4
2018-Jun-18 09:00N 36°28' E 014°35'714.4
2018-Jun-18 08:30N 36°29' E 014°26'714.4
2018-Jun-18 08:00N 36°30' E 014°17'714.4
2018-Jun-18 07:30N 36°31' E 014°09'1614.4
2018-Jun-18 06:26N 36°33' E 013°50'49314.2
2018-Jun-16 19:33N 38°05' E 003°40'114.5
2018-Jun-16 19:30N 38°05' E 003°39'814.7
2018-Jun-16 18:59N 38°06' E 003°29'3514.5
2018-Jun-16 16:33N 38°09' E 002°45'214.3
2018-Jun-16 16:23N 38°09' E 002°41'513.8
2018-Jun-16 15:59N 38°09' E 002°35'2 0.2
2018-Jun-16 02:53N 38°07' E 002°36'0 0.4
2018-Jun-16 02:29N 38°07' E 002°36'0 0.4
2018-Jun-16 01:59N 38°07' E 002°36'3 0.5
2018-Jun-15 19:08N 38°05' E 002°39'1 0.3
2018-Jun-15 13:29N 38°03' E 002°40'1 0.4
2018-Jun-15 11:56N 38°03' E 002°39'0 0.4
2018-Jun-15 11:11N 38°02' E 002°39'0 0.4
2018-Jun-15 10:56N 38°02' E 002°39'0 0.4
2018-Jun-15 10:14N 38°02' E 002°39'0 0.5
2018-Jun-15 09:59N 38°02' E 002°39'  
2018-Jun-12 22:25N 37°34' E 002°07'10 1.8
2018-Jun-12 16:46N 37°38' E 001°55'  

Dump ship's entire track history